createdAt,value
2018-07-31T00:01:14.442Z,64.50
2018-07-31T00:03:43.116Z,65.02
2018-07-31T00:06:16.754Z,63.75
2018-07-31T00:08:45.302Z,65.66
2018-07-31T00:11:13.969Z,64.74
2018-07-31T00:13:42.464Z,65.47
2018-07-31T00:16:10.935Z,66.22
2018-07-31T00:18:39.424Z,65.73
2018-07-31T00:21:08.202Z,65.06
2018-07-31T00:23:37.034Z,63.61
2018-07-31T00:26:06.242Z,63.24
2018-07-31T00:28:34.896Z,62.30
2018-07-31T00:31:04.394Z,62.23
2018-07-31T00:33:33.317Z,61.80
2018-07-31T00:36:02.291Z,61.88
2018-07-31T00:38:31.034Z,62.43
2018-07-31T00:40:59.922Z,64.03
2018-07-31T00:43:28.471Z,64.46
2018-07-31T00:45:57.041Z,63.77
2018-07-31T00:48:26.035Z,64.65
2018-07-31T00:50:54.586Z,65.28
2018-07-31T00:53:23.159Z,66.26
2018-07-31T00:55:51.780Z,67.10
2018-07-31T00:58:20.370Z,66.92
2018-07-31T01:00:48.973Z,66.70
2018-07-31T01:03:17.522Z,66.15
2018-07-31T01:05:46.118Z,65.64
2018-07-31T01:08:14.950Z,66.36
2018-07-31T01:10:43.531Z,65.73
2018-07-31T01:13:12.053Z,66.40
2018-07-31T01:15:40.651Z,66.18
2018-07-31T01:18:09.278Z,65.90
2018-07-31T01:20:38.025Z,66.32
2018-07-31T01:23:06.715Z,65.20
2018-07-31T01:25:35.226Z,65.13
2018-07-31T01:28:04.717Z,66.72
2018-07-31T01:30:33.286Z,67.15
2018-07-31T01:33:01.842Z,67.69
2018-07-31T01:35:30.322Z,68.43
2018-07-31T01:37:58.934Z,68.97
2018-07-31T01:40:27.424Z,68.81
2018-07-31T01:42:55.966Z,69.97
2018-07-31T01:45:24.486Z,69.61
2018-07-31T01:47:53.074Z,70.58
2018-07-31T01:50:21.610Z,70.34
2018-07-31T01:53:53.414Z,70.35
2018-07-31T01:56:22.006Z,70.00
2018-07-31T01:58:50.785Z,70.61
2018-07-31T02:01:19.295Z,70.45
2018-07-31T02:03:52.095Z,70.49
2018-07-31T02:06:24.822Z,70.39
2018-07-31T02:08:53.410Z,70.00
2018-07-31T02:11:21.895Z,70.08
2018-07-31T02:13:50.766Z,69.88
2018-07-31T02:16:19.269Z,69.75
2018-07-31T02:18:47.730Z,69.45
2018-07-31T02:21:16.355Z,69.72
2018-07-31T02:23:45.334Z,69.86
2018-07-31T02:26:13.902Z,69.67
2018-07-31T02:28:42.441Z,68.97
2018-07-31T02:31:10.834Z,69.27
2018-07-31T02:33:39.499Z,69.43
2018-07-31T02:36:08.023Z,69.35
2018-07-31T02:38:36.941Z,70.17
2018-07-31T02:41:05.547Z,70.60
2018-07-31T02:43:34.154Z,71.20
2018-07-31T02:46:02.661Z,71.41
2018-07-31T02:48:31.171Z,71.60
2018-07-31T02:50:59.843Z,71.59
2018-07-31T02:53:28.326Z,71.17
2018-07-31T02:55:56.822Z,70.44
2018-07-31T02:58:25.454Z,71.15
2018-07-31T03:00:54.036Z,71.28
2018-07-31T03:03:22.542Z,70.91
2018-07-31T03:05:51.074Z,70.66
2018-07-31T03:08:19.724Z,70.79
2018-07-31T03:10:48.225Z,71.06
2018-07-31T03:13:16.674Z,71.34
2018-07-31T03:15:45.198Z,71.87
2018-07-31T03:18:13.727Z,71.35
2018-07-31T03:20:42.262Z,72.21
2018-07-31T03:23:10.786Z,72.02
2018-07-31T03:25:39.322Z,73.23
2018-07-31T03:28:07.906Z,74.62
2018-07-31T03:30:36.350Z,74.02
2018-07-31T03:33:04.867Z,74.05
2018-07-31T03:35:33.378Z,74.79
2018-07-31T03:38:02.178Z,75.08
2018-07-31T03:40:30.705Z,75.32
2018-07-31T03:42:59.264Z,75.53
2018-07-31T03:45:27.829Z,75.01
2018-07-31T03:47:56.618Z,74.95
2018-07-31T03:50:25.156Z,75.20
2018-07-31T03:52:53.873Z,74.80
2018-07-31T03:55:22.582Z,76.55
2018-07-31T03:57:51.086Z,76.17
2018-07-31T04:00:19.602Z,76.09
2018-07-31T04:02:48.166Z,75.60
2018-07-31T04:05:16.662Z,75.72
2018-07-31T04:07:45.220Z,76.08
2018-07-31T04:10:13.862Z,75.41
2018-07-31T04:12:42.459Z,75.38
2018-07-31T04:15:11.253Z,75.55
2018-07-31T04:17:39.790Z,75.15
2018-07-31T04:20:08.242Z,74.88
2018-07-31T04:22:36.965Z,74.77
2018-07-31T04:26:08.701Z,75.64
2018-07-31T04:28:37.272Z,74.99
2018-07-31T04:31:06.030Z,75.84
2018-07-31T04:33:34.597Z,75.60
2018-07-31T04:36:03.585Z,75.50
2018-07-31T04:38:32.164Z,75.56
2018-07-31T04:41:00.786Z,75.38
2018-07-31T04:43:29.328Z,75.71
2018-07-31T04:45:57.962Z,75.52
2018-07-31T04:48:26.498Z,74.41
2018-07-31T04:50:55.054Z,74.30
2018-07-31T04:53:23.590Z,74.06
2018-07-31T04:55:52.197Z,73.53
2018-07-31T04:58:20.711Z,74.24
2018-07-31T05:00:49.205Z,72.89
2018-07-31T05:03:17.862Z,73.13
2018-07-31T05:05:46.336Z,73.01
2018-07-31T05:08:14.842Z,73.59
2018-07-31T05:10:43.514Z,72.64
2018-07-31T05:13:12.010Z,71.56
2018-07-31T05:15:40.443Z,71.46
2018-07-31T05:18:09.038Z,71.54
2018-07-31T05:20:37.702Z,70.71
2018-07-31T05:23:06.421Z,70.32
2018-07-31T05:25:34.907Z,69.31
2018-07-31T05:28:03.454Z,69.33
2018-07-31T05:30:32.091Z,70.17
2018-07-31T05:33:00.622Z,69.67
2018-07-31T05:35:29.126Z,69.75
2018-07-31T05:37:57.624Z,69.71
2018-07-31T05:40:26.397Z,68.47
2018-07-31T05:42:54.955Z,69.51
2018-07-31T05:45:23.645Z,69.28
2018-07-31T05:47:52.398Z,67.04
2018-07-31T05:50:20.930Z,67.21
2018-07-31T05:52:49.445Z,67.64
2018-07-31T05:55:17.899Z,66.76
2018-07-31T05:57:46.438Z,66.90
2018-07-31T06:00:14.874Z,66.52
2018-07-31T06:02:43.522Z,66.27
2018-07-31T06:05:12.072Z,65.33
2018-07-31T06:07:40.686Z,64.93
2018-07-31T06:10:09.574Z,65.98
2018-07-31T06:12:38.142Z,65.30
2018-07-31T06:15:07.733Z,64.37
2018-07-31T06:17:36.267Z,63.91
2018-07-31T06:20:06.090Z,64.35
2018-07-31T06:22:35.699Z,63.46
2018-07-31T06:25:04.596Z,62.03
2018-07-31T06:27:33.119Z,61.58
2018-07-31T06:30:01.598Z,61.32
2018-07-31T06:32:30.097Z,60.93
2018-07-31T06:34:58.834Z,60.40
2018-07-31T06:37:27.309Z,60.39
2018-07-31T06:39:56.047Z,60.73
2018-07-31T06:42:25.861Z,59.45
2018-07-31T06:44:54.322Z,59.28
2018-07-31T06:47:22.790Z,59.63
2018-07-31T06:49:51.290Z,58.91
2018-07-31T06:52:19.742Z,58.77
2018-07-31T06:54:48.222Z,58.76
2018-07-31T06:57:16.707Z,57.88
2018-07-31T06:59:45.207Z,56.99
2018-07-31T07:02:13.709Z,57.00
2018-07-31T07:04:42.250Z,56.74
2018-07-31T07:07:10.831Z,56.49
2018-07-31T07:09:39.421Z,55.08
2018-07-31T07:12:07.942Z,55.69
2018-07-31T07:14:36.466Z,55.69
2018-07-31T07:17:04.995Z,54.39
2018-07-31T07:19:33.517Z,54.79
2018-07-31T07:22:02.085Z,54.23
2018-07-31T07:24:30.557Z,54.16
2018-07-31T07:26:59.140Z,54.29
2018-07-31T07:29:27.767Z,52.96
2018-07-31T07:31:56.425Z,53.77
2018-07-31T07:34:24.949Z,51.82
2018-07-31T07:36:53.480Z,52.68
2018-07-31T07:39:21.969Z,51.63
2018-07-31T07:41:50.448Z,51.44
2018-07-31T07:44:19.035Z,51.46
2018-07-31T07:46:47.482Z,50.55
2018-07-31T07:49:15.917Z,50.35
2018-07-31T07:51:44.441Z,48.90
2018-07-31T07:54:13.118Z,49.31
2018-07-31T07:56:41.574Z,49.08
2018-07-31T07:59:10.695Z,49.29
2018-07-31T08:01:39.319Z,48.00
2018-07-31T08:04:07.909Z,48.08
2018-07-31T08:06:36.454Z,47.40
2018-07-31T08:09:07.942Z,47.53
2018-07-31T08:11:36.523Z,46.83
2018-07-31T08:14:05.209Z,46.70
2018-07-31T08:16:33.838Z,45.92
2018-07-31T08:19:02.599Z,45.37
2018-07-31T08:21:31.227Z,44.52
2018-07-31T08:23:59.767Z,43.09
2018-07-31T08:26:28.290Z,42.38
2018-07-31T08:28:56.794Z,43.47
2018-07-31T08:31:25.382Z,43.06
2018-07-31T08:33:54.119Z,41.31
2018-07-31T08:36:22.746Z,40.92
2018-07-31T08:38:51.293Z,41.10
2018-07-31T08:41:19.967Z,40.82
2018-07-31T08:43:48.507Z,39.96
2018-07-31T08:46:17.042Z,39.46
2018-07-31T08:48:45.642Z,40.08
2018-07-31T08:51:14.190Z,39.23
2018-07-31T08:53:42.618Z,39.05
2018-07-31T08:56:11.082Z,39.21
2018-07-31T08:58:39.542Z,37.97
2018-07-31T09:01:08.238Z,37.87
2018-07-31T09:03:36.713Z,37.71
2018-07-31T09:06:05.487Z,37.89
2018-07-31T09:08:34.016Z,37.08
2018-07-31T09:11:02.494Z,36.45
2018-07-31T09:13:31.038Z,36.23
2018-07-31T09:15:59.598Z,36.05
2018-07-31T09:18:28.065Z,35.91
2018-07-31T09:20:57.569Z,35.20
2018-07-31T09:23:26.157Z,34.98
2018-07-31T09:25:59.150Z,34.61
2018-07-31T09:28:28.422Z,34.52
2018-07-31T09:31:02.418Z,33.23
2018-07-31T09:33:30.883Z,33.54
2018-07-31T09:35:59.706Z,33.31
2018-07-31T09:38:28.247Z,32.90
2018-07-31T09:40:56.697Z,32.53
2018-07-31T09:43:25.219Z,32.01
2018-07-31T09:45:53.650Z,30.86
2018-07-31T09:48:22.188Z,31.02
2018-07-31T09:50:50.618Z,30.41
2018-07-31T09:53:20.146Z,30.03
2018-07-31T09:55:48.633Z,28.65
2018-07-31T09:58:17.156Z,26.58
2018-07-31T10:00:51.271Z,26.31
2018-07-31T10:03:19.834Z,24.35
2018-07-31T10:05:48.250Z,23.64
2018-07-31T10:08:20.896Z,23.73
2018-07-31T10:10:50.253Z,23.49
2018-07-31T10:13:18.834Z,22.94
2018-07-31T10:15:47.282Z,22.43
2018-07-31T10:18:16.245Z,21.79
2018-07-31T10:20:44.607Z,22.13
2018-07-31T10:23:13.333Z,21.93
2018-07-31T10:25:41.823Z,23.30
2018-07-31T10:28:10.542Z,21.00
2018-07-31T10:30:39.099Z,19.98
2018-07-31T10:33:07.546Z,26.53
2018-07-31T10:35:36.002Z,26.62
2018-07-31T10:38:04.547Z,27.03
2018-07-31T10:40:33.168Z,23.87
2018-07-31T10:43:01.824Z,24.07
2018-07-31T10:45:30.387Z,21.48
2018-07-31T10:47:58.905Z,20.80
2018-07-31T10:50:27.782Z,21.39
2018-07-31T10:52:56.310Z,19.69
2018-07-31T10:55:24.799Z,19.78
2018-07-31T10:57:53.261Z,18.16
2018-07-31T11:00:21.802Z,18.31
2018-07-31T11:02:50.459Z,18.16
2018-07-31T11:05:18.808Z,17.89
2018-07-31T11:07:47.393Z,19.05
2018-07-31T11:10:15.986Z,18.21
2018-07-31T11:12:49.046Z,16.50
2018-07-31T11:15:17.544Z,16.88
2018-07-31T11:17:46.101Z,16.39
2018-07-31T11:20:14.618Z,15.81
2018-07-31T11:22:43.193Z,15.82
2018-07-31T11:25:11.754Z,15.21
2018-07-31T11:27:40.259Z,14.89
2018-07-31T11:30:08.842Z,14.55
2018-07-31T11:32:37.367Z,15.78
2018-07-31T11:35:05.857Z,14.02
2018-07-31T11:37:34.310Z,14.93
2018-07-31T11:40:02.838Z,13.76
2018-07-31T11:42:31.354Z,13.59
2018-07-31T11:44:59.950Z,14.08
2018-07-31T11:47:28.445Z,14.00
2018-07-31T11:49:57.013Z,13.32
2018-07-31T11:52:25.628Z,13.05
2018-07-31T11:54:54.106Z,13.96
2018-07-31T11:57:22.553Z,12.99
2018-07-31T11:59:50.998Z,12.21
2018-07-31T12:02:20.458Z,12.21
2018-07-31T12:04:48.918Z,11.38
2018-07-31T12:07:17.460Z,10.84
2018-07-31T12:09:46.009Z,10.83
2018-07-31T12:12:14.439Z,10.21
2018-07-31T12:14:42.962Z,10.20
2018-07-31T12:17:11.463Z,9.96
2018-07-31T12:19:39.975Z,12.15
2018-07-31T12:22:08.639Z,11.28
2018-07-31T12:24:37.110Z,12.16
2018-07-31T12:27:05.781Z,12.27
2018-07-31T12:29:34.355Z,12.18
2018-07-31T12:32:03.002Z,13.22
2018-07-31T12:34:31.575Z,12.22
2018-07-31T12:37:00.434Z,11.44
2018-07-31T12:39:28.934Z,11.21
2018-07-31T12:41:57.461Z,12.03
2018-07-31T12:44:25.989Z,11.47
2018-07-31T12:46:54.455Z,12.19
2018-07-31T12:49:22.954Z,12.52
2018-07-31T12:51:51.452Z,13.33
2018-07-31T12:54:20.101Z,13.52
2018-07-31T12:56:48.653Z,12.29
2018-07-31T12:59:17.182Z,11.82
2018-07-31T13:01:45.622Z,11.27
2018-07-31T13:04:14.202Z,10.59
2018-07-31T13:06:42.912Z,10.62
2018-07-31T13:09:11.562Z,10.31
2018-07-31T13:11:40.099Z,10.58
2018-07-31T13:14:08.629Z,11.03
2018-07-31T13:16:37.200Z,10.77
2018-07-31T13:19:05.863Z,11.87
2018-07-31T13:21:34.349Z,10.13
2018-07-31T13:24:02.802Z,9.30
2018-07-31T13:26:31.285Z,8.99
2018-07-31T13:28:59.749Z,9.21
2018-07-31T13:31:28.234Z,9.67
2018-07-31T13:33:56.797Z,10.43
2018-07-31T13:36:25.347Z,8.62
2018-07-31T13:38:53.833Z,8.34
2018-07-31T13:41:22.378Z,7.63
2018-07-31T13:43:51.043Z,8.42
2018-07-31T13:46:19.501Z,8.12
2018-07-31T13:48:48.007Z,8.41
2018-07-31T13:51:16.520Z,8.92
2018-07-31T13:53:44.970Z,8.06
2018-07-31T13:56:13.538Z,8.54
2018-07-31T13:58:42.126Z,7.59
2018-07-31T14:01:10.649Z,7.89
2018-07-31T14:03:39.107Z,8.57
2018-07-31T14:06:07.817Z,9.35
2018-07-31T14:08:36.287Z,8.18
2018-07-31T14:11:04.855Z,8.37
2018-07-31T14:13:33.286Z,9.34
2018-07-31T14:16:01.798Z,8.74
2018-07-31T14:18:30.250Z,8.20
2018-07-31T14:20:58.830Z,7.47
2018-07-31T14:23:27.310Z,8.81
2018-07-31T14:25:55.824Z,7.53
2018-07-31T14:28:24.333Z,7.49
2018-07-31T14:30:52.846Z,8.27
2018-07-31T14:33:21.286Z,8.76
2018-07-31T14:35:49.816Z,7.92
2018-07-31T14:38:18.494Z,8.36
2018-07-31T14:40:46.991Z,8.76
2018-07-31T14:43:15.919Z,9.43
2018-07-31T14:45:44.862Z,12.59
2018-07-31T14:48:13.398Z,11.35
2018-07-31T14:50:41.887Z,9.37
2018-07-31T14:53:11.074Z,9.67
2018-07-31T14:55:39.602Z,11.55
2018-07-31T14:58:08.094Z,13.95
2018-07-31T15:00:36.565Z,11.99
2018-07-31T15:03:05.054Z,11.63
2018-07-31T15:05:33.514Z,9.85
2018-07-31T15:08:02.150Z,9.58
2018-07-31T15:10:30.554Z,8.65
2018-07-31T15:12:59.165Z,7.54
2018-07-31T15:15:27.619Z,7.41
2018-07-31T15:17:56.061Z,8.17
2018-07-31T15:20:24.726Z,8.07
2018-07-31T15:22:53.302Z,7.98
2018-07-31T15:25:21.754Z,9.42
2018-07-31T15:27:50.241Z,8.90
2018-07-31T15:30:18.694Z,9.25
2018-07-31T15:32:47.205Z,9.05
2018-07-31T15:35:19.086Z,7.93
2018-07-31T15:37:47.538Z,8.69
2018-07-31T15:40:16.020Z,9.70
2018-07-31T15:42:44.538Z,10.40
2018-07-31T15:45:13.002Z,10.14
2018-07-31T15:47:41.494Z,10.29
2018-07-31T15:50:09.925Z,11.33
2018-07-31T15:52:38.438Z,10.14
2018-07-31T15:55:07.037Z,10.55
2018-07-31T15:57:35.505Z,9.59
2018-07-31T16:00:05.506Z,11.10
2018-07-31T16:02:34.015Z,11.25
2018-07-31T16:05:02.627Z,12.08
2018-07-31T16:07:31.238Z,12.28
2018-07-31T16:09:59.977Z,13.21
2018-07-31T16:12:28.759Z,13.69
2018-07-31T16:14:57.269Z,15.73
2018-07-31T16:17:25.858Z,19.81
2018-07-31T16:19:54.400Z,22.92
2018-07-31T16:22:22.870Z,24.26
2018-07-31T16:24:51.409Z,25.51
2018-07-31T16:27:19.934Z,25.85
2018-07-31T16:29:48.407Z,26.64
2018-07-31T16:32:16.930Z,26.60
2018-07-31T16:34:45.410Z,26.04
2018-07-31T16:37:13.841Z,27.49
2018-07-31T16:39:42.433Z,28.33
2018-07-31T16:42:10.884Z,29.26
2018-07-31T16:44:39.445Z,29.07
2018-07-31T16:47:07.879Z,29.61
2018-07-31T16:49:36.450Z,29.67
2018-07-31T16:52:05.070Z,29.49
2018-07-31T16:54:33.698Z,26.41
2018-07-31T16:57:02.412Z,22.87
2018-07-31T16:59:31.021Z,20.47
2018-07-31T17:01:59.643Z,17.73
2018-07-31T17:04:28.109Z,17.60
2018-07-31T17:06:56.612Z,18.23
2018-07-31T17:09:25.196Z,18.01
2018-07-31T17:11:53.807Z,19.12
2018-07-31T17:14:22.345Z,19.80
2018-07-31T17:16:50.819Z,20.70
2018-07-31T17:19:19.318Z,20.22
2018-07-31T17:21:47.894Z,23.51
2018-07-31T17:24:16.382Z,26.23
2018-07-31T17:26:45.196Z,28.41
2018-07-31T17:29:13.924Z,30.39
2018-07-31T17:31:42.393Z,31.30
2018-07-31T17:34:10.928Z,30.94
2018-07-31T17:36:39.469Z,30.68
2018-07-31T17:39:09.462Z,30.80
2018-07-31T17:41:38.229Z,32.07
2018-07-31T17:44:07.136Z,32.34
2018-07-31T17:46:36.073Z,33.20
2018-07-31T17:49:04.790Z,33.97
2018-07-31T17:51:33.355Z,34.34
2018-07-31T17:54:02.267Z,33.95
2018-07-31T17:56:30.878Z,34.71
2018-07-31T17:58:59.377Z,35.78
2018-07-31T18:01:27.979Z,35.99
2018-07-31T18:03:56.450Z,35.82
2018-07-31T18:06:25.272Z,36.33
2018-07-31T18:08:53.706Z,36.85
2018-07-31T18:11:22.682Z,37.62
2018-07-31T18:13:51.214Z,37.53
2018-07-31T18:16:19.857Z,38.22
2018-07-31T18:18:48.375Z,37.65
2018-07-31T18:21:16.949Z,38.14
2018-07-31T18:23:45.595Z,38.43
2018-07-31T18:26:14.395Z,39.40
2018-07-31T18:28:43.079Z,38.50
2018-07-31T18:31:11.647Z,38.45
2018-07-31T18:33:40.102Z,38.77
2018-07-31T18:36:08.610Z,39.13
2018-07-31T18:38:37.226Z,40.37
2018-07-31T18:41:05.875Z,39.91
2018-07-31T18:43:34.622Z,40.59
2018-07-31T18:46:03.177Z,40.54
2018-07-31T18:48:31.890Z,41.18
2018-07-31T18:51:00.426Z,40.99
2018-07-31T18:53:29.079Z,41.36
2018-07-31T18:55:57.624Z,41.82
2018-07-31T18:58:26.890Z,42.31
2018-07-31T19:00:55.831Z,41.94
2018-07-31T19:03:24.342Z,42.72
2018-07-31T19:05:52.811Z,44.85
2018-07-31T19:08:21.358Z,44.11
2018-07-31T19:10:49.890Z,44.55
2018-07-31T19:13:18.422Z,44.85
2018-07-31T19:15:46.954Z,44.42
2018-07-31T19:18:15.427Z,44.46
2018-07-31T19:20:43.917Z,45.25
2018-07-31T19:23:12.403Z,45.70
2018-07-31T19:25:41.789Z,46.56
2018-07-31T19:28:10.407Z,46.70
2018-07-31T19:30:38.937Z,46.89
2018-07-31T19:33:07.612Z,48.01
2018-07-31T19:35:36.231Z,48.53
2018-07-31T19:38:04.829Z,48.86
2018-07-31T19:40:33.438Z,48.96
2018-07-31T19:43:02.300Z,49.35
2018-07-31T19:45:30.909Z,49.96
2018-07-31T19:47:59.431Z,50.20
2018-07-31T19:50:28.050Z,49.93
2018-07-31T19:52:56.578Z,50.84
2018-07-31T19:55:25.101Z,50.18
2018-07-31T19:57:53.711Z,50.84
2018-07-31T20:00:22.285Z,51.50
2018-07-31T20:02:51.088Z,51.54
2018-07-31T20:05:19.670Z,51.09
2018-07-31T20:07:48.350Z,51.54
2018-07-31T20:10:16.886Z,50.97
2018-07-31T20:12:45.430Z,51.18
2018-07-31T20:15:13.987Z,51.22
2018-07-31T20:17:42.560Z,51.69
2018-07-31T20:20:11.158Z,50.73
2018-07-31T20:22:39.732Z,51.06
2018-07-31T20:25:08.203Z,51.70
2018-07-31T20:27:36.917Z,51.98
2018-07-31T20:30:06.670Z,51.58
2018-07-31T20:32:35.238Z,51.99
2018-07-31T20:35:03.778Z,52.19
2018-07-31T20:37:32.353Z,52.34
2018-07-31T20:40:01.054Z,52.31
2018-07-31T20:42:29.814Z,52.41
2018-07-31T20:44:58.413Z,52.29
2018-07-31T20:47:27.028Z,52.79
2018-07-31T20:49:55.564Z,52.50
2018-07-31T20:52:24.066Z,52.77
2018-07-31T20:54:53.101Z,53.28
2018-07-31T20:57:21.606Z,53.43
2018-07-31T20:59:50.194Z,53.75
2018-07-31T21:02:18.675Z,54.18
2018-07-31T21:04:47.177Z,54.58
2018-07-31T21:07:15.891Z,55.40
2018-07-31T21:09:44.337Z,55.83
2018-07-31T21:12:12.826Z,56.47
2018-07-31T21:14:41.387Z,57.13
2018-07-31T21:17:09.880Z,57.80
2018-07-31T21:19:38.371Z,58.25
2018-07-31T21:22:06.865Z,57.97
2018-07-31T21:24:35.351Z,58.84
2018-07-31T21:27:04.369Z,59.05
2018-07-31T21:29:32.934Z,58.93
2018-07-31T21:32:01.590Z,59.39
2018-07-31T21:34:30.102Z,60.20
2018-07-31T21:36:58.676Z,60.03
2018-07-31T21:39:27.202Z,61.46
2018-07-31T21:41:55.731Z,61.79
2018-07-31T21:44:24.258Z,61.86
2018-07-31T21:46:52.802Z,62.37
2018-07-31T21:49:21.365Z,62.83
2018-07-31T21:51:49.865Z,62.84
2018-07-31T21:54:18.362Z,63.19
2018-07-31T21:56:46.874Z,63.82
2018-07-31T21:59:15.342Z,64.50
2018-07-31T22:01:43.820Z,64.62
2018-07-31T22:04:12.377Z,65.40
2018-07-31T22:06:41.030Z,66.40
2018-07-31T22:09:09.830Z,66.57
2018-07-31T22:11:38.441Z,66.74
2018-07-31T22:14:06.905Z,67.23
2018-07-31T22:16:35.449Z,67.81
2018-07-31T22:19:03.943Z,67.29
2018-07-31T22:21:32.506Z,67.31
2018-07-31T22:24:01.124Z,67.80
2018-07-31T22:26:29.879Z,67.45
2018-07-31T22:28:58.422Z,67.63
2018-07-31T22:31:26.999Z,67.60
2018-07-31T22:33:55.453Z,67.68
2018-07-31T22:36:24.093Z,68.13
2018-07-31T22:38:52.602Z,68.59
2018-07-31T22:41:21.150Z,69.04
2018-07-31T22:43:49.682Z,70.33
2018-07-31T22:46:23.043Z,70.56
2018-07-31T22:48:51.710Z,70.39
2018-07-31T22:51:20.365Z,71.02
2018-07-31T22:53:48.905Z,70.92
2018-07-31T22:56:17.378Z,71.62
2018-07-31T22:58:45.835Z,71.54
2018-07-31T23:01:14.427Z,71.15
2018-07-31T23:03:42.910Z,71.02
2018-07-31T23:06:11.657Z,71.72
2018-07-31T23:08:40.193Z,72.08
2018-07-31T23:11:08.674Z,72.12
2018-07-31T23:13:37.093Z,72.54
2018-07-31T23:16:05.671Z,72.04
2018-07-31T23:18:34.261Z,71.73
2018-07-31T23:21:02.910Z,72.45
2018-07-31T23:23:31.479Z,72.25
2018-07-31T23:26:00.095Z,72.19
2018-07-31T23:28:28.706Z,72.28
2018-07-31T23:30:57.262Z,72.11
2018-07-31T23:33:25.706Z,72.04
2018-07-31T23:35:54.312Z,71.81
2018-07-31T23:38:22.843Z,72.23
2018-07-31T23:40:51.618Z,71.26
2018-07-31T23:43:20.661Z,71.64
2018-07-31T23:45:49.126Z,72.11
2018-07-31T23:48:17.561Z,72.16
2018-07-31T23:50:46.105Z,72.75
2018-07-31T23:53:15.633Z,72.82
2018-07-31T23:55:44.129Z,73.20
2018-07-31T23:58:12.585Z,73.58
